Main page
METAR-TAF:

METAR-TAF

Airports :

Lydd Airport

Lydd, England

latitude: 50-57N, longitude: 000-56E, elevation: 3 m

Current weather observation

The report was made 35 minutes ago, at 16:20 UTC
Wind 10 kt from the East
Temperature 14°C
Humidity 94%
Pressure 1009 hPa
Visibility: 8000 m
Few clouds at a height of 900 ft
light drizzle

METAR: EGMD 231620Z 08010KT 8000 -DZ FEW009 14/13 Q1009

Time: 17:55 (16:55 UTC)

Forecast

The report was made 2 hours and 51 minutes ago, at 14:04 UTC
Forecast valid from 23 at 15 UTC to 23 at 24 UTC
Wind 10 kt from the East
Visibility 10 km or more
Few clouds at a height of 1000 ft
Temporary
from 23 at 15 UTC to 23 at 24 UTC
Visibility: 8000 m
Broken clouds at a height of 1000 ft
light rain

TAF: EGMD 231404Z 2315/2324 08010KT 9999 FEW010 TEMPO 2315/2324 8000 -RA BKN010

Weather observations and forecasts of more than 4000 airports (METAR and TAF reports).

The available stations are represented by yellow and red dots on the map.

Hover mouse over dot to see the name of the station.

Then click to see weather observations and forecasts.

To change the map : click on the green buttons with a black cross to zoom in, on the green button with a dash to zoom out, or on the green arrows for adjacent maps.


METAR-TAF: